createdAt,value
2019-03-15T00:00:23.822Z,40.04
2019-03-15T00:00:50.216Z,40.06
2019-03-15T00:01:15.923Z,40.06
2019-03-15T00:01:42.054Z,40.05
2019-03-15T00:02:07.829Z,40.06
2019-03-15T00:02:33.913Z,40.02
2019-03-15T00:02:59.815Z,39.99
2019-03-15T00:03:25.818Z,40.09
2019-03-15T00:03:51.828Z,40.03
2019-03-15T00:04:17.901Z,40.06
2019-03-15T00:04:43.820Z,40.01
2019-03-15T00:05:09.838Z,40.01
2019-03-15T00:05:35.816Z,39.94
2019-03-15T00:06:01.859Z,39.95
2019-03-15T00:06:27.819Z,39.99
2019-03-15T00:06:53.829Z,39.98
2019-03-15T00:07:19.905Z,39.98
2019-03-15T00:07:45.836Z,40.02
2019-03-15T00:08:11.840Z,39.98
2019-03-15T00:08:37.842Z,40.06
2019-03-15T00:09:03.853Z,40.08
2019-03-15T00:09:29.840Z,40.09
2019-03-15T00:09:55.829Z,40.11
2019-03-15T00:10:21.841Z,40.22
2019-03-15T00:10:47.825Z,40.15
2019-03-15T00:11:13.827Z,40.1
2019-03-15T00:11:39.833Z,40.13
2019-03-15T00:12:06.407Z,40.12
2019-03-15T00:12:31.845Z,40.11
2019-03-15T00:12:57.847Z,40.11
2019-03-15T00:13:23.832Z,40.12
2019-03-15T00:13:49.836Z,40.11
2019-03-15T00:14:15.832Z,40.12
2019-03-15T00:14:41.848Z,40.14
2019-03-15T00:15:07.914Z,40.12
2019-03-15T00:15:33.832Z,40.12
2019-03-15T00:15:59.847Z,40.12
2019-03-15T00:16:25.837Z,40.14
2019-03-15T00:16:51.851Z,40.12
2019-03-15T00:17:17.835Z,40.11
2019-03-15T00:17:43.837Z,40.12
2019-03-15T00:18:09.852Z,40.17
2019-03-15T00:18:35.919Z,40.14
2019-03-15T00:19:01.854Z,40.13
2019-03-15T00:19:27.864Z,40.12
2019-03-15T00:19:53.839Z,40.14
2019-03-15T00:20:19.856Z,40.12
2019-03-15T00:20:45.840Z,40.16
2019-03-15T00:21:11.875Z,40.17
2019-03-15T00:21:37.858Z,40.18
2019-03-15T00:22:03.910Z,40.19
2019-03-15T00:22:29.859Z,40.19
2019-03-15T00:22:55.847Z,40.19
2019-03-15T00:23:21.858Z,40.19
2019-03-15T00:23:47.845Z,40.15
2019-03-15T00:24:13.847Z,40.19
2019-03-15T00:24:39.863Z,40.23
2019-03-15T00:25:05.863Z,40.26
2019-03-15T00:25:31.864Z,40.23
2019-03-15T00:25:57.864Z,40.25
2019-03-15T00:26:23.848Z,40.25
2019-03-15T00:26:49.850Z,40.26
2019-03-15T00:27:15.853Z,40.25
2019-03-15T00:27:41.863Z,40.3
2019-03-15T00:28:07.932Z,40.29
2019-03-15T00:28:34.096Z,40.3
2019-03-15T00:28:59.953Z,40.31
2019-03-15T00:29:25.853Z,40.29
2019-03-15T00:29:51.870Z,40.33
2019-03-15T00:30:17.854Z,40.36
2019-03-15T00:30:43.858Z,40.36
2019-03-15T00:31:09.869Z,40.34
2019-03-15T00:31:36.012Z,40.33
2019-03-15T00:32:02.049Z,40.39
2019-03-15T00:32:27.871Z,40.33
2019-03-15T00:32:53.862Z,40.39
2019-03-15T00:33:19.875Z,40.37
2019-03-15T00:33:45.862Z,40.43
2019-03-15T00:34:11.971Z,40.41
2019-03-15T00:34:37.881Z,40.47
2019-03-15T00:35:03.930Z,40.48
2019-03-15T00:35:29.880Z,40.46
2019-03-15T00:35:55.879Z,40.52
2019-03-15T00:36:21.879Z,40.54
2019-03-15T00:36:47.864Z,40.59
2019-03-15T00:37:13.864Z,40.63
2019-03-15T00:37:39.946Z,40.6
2019-03-15T00:38:05.867Z,40.65
2019-03-15T00:38:31.965Z,40.62
2019-03-15T00:38:57.947Z,40.6
2019-03-15T00:39:23.864Z,40.65
2019-03-15T00:39:49.882Z,40.7
2019-03-15T00:40:15.870Z,40.71
2019-03-15T00:40:41.883Z,40.7
2019-03-15T00:41:07.871Z,40.7
2019-03-15T00:41:33.871Z,40.69
2019-03-15T00:41:59.885Z,40.69
2019-03-15T00:42:25.946Z,40.69
2019-03-15T00:42:51.886Z,40.7
2019-03-15T00:43:17.887Z,40.77
2019-03-15T00:43:43.869Z,40.76
2019-03-15T00:44:09.886Z,40.77
2019-03-15T00:44:35.870Z,40.8
2019-03-15T00:45:01.888Z,40.79
2019-03-15T00:45:27.875Z,40.8
2019-03-15T00:45:53.882Z,40.82
2019-03-15T00:46:19.894Z,40.86
2019-03-15T00:46:45.892Z,40.78
2019-03-15T00:47:11.891Z,40.8
2019-03-15T00:47:37.879Z,40.82
2019-03-15T00:48:04.250Z,40.83
2019-03-15T00:48:29.875Z,40.86
2019-03-15T00:48:55.876Z,40.93
2019-03-15T00:49:21.889Z,40.94
2019-03-15T00:49:47.895Z,40.99
2019-03-15T00:50:13.949Z,40.95
2019-03-15T00:50:39.897Z,41.02
2019-03-15T00:51:05.899Z,41
2019-03-15T00:51:31.959Z,40.99
2019-03-15T00:51:57.891Z,41.09
2019-03-15T00:52:23.889Z,41.1
2019-03-15T00:52:49.891Z,41.12
2019-03-15T00:53:15.897Z,41.18
2019-03-15T00:53:41.965Z,41.13
2019-03-15T00:54:07.911Z,41.11
2019-03-15T00:54:33.891Z,41.16
2019-03-15T00:54:59.920Z,41.15
2019-03-15T00:55:25.894Z,41.21
2019-03-15T00:55:51.894Z,41.2
2019-03-15T00:56:17.902Z,41.14
2019-03-15T00:56:43.958Z,41.15
2019-03-15T00:57:09.910Z,41.18
2019-03-15T00:57:35.938Z,41.33
2019-03-15T00:58:01.911Z,41.28
2019-03-15T00:58:27.945Z,41.47
2019-03-15T00:58:53.894Z,41.44
2019-03-15T00:59:19.905Z,41.41
2019-03-15T00:59:45.978Z,41.59
2019-03-15T01:00:11.916Z,41.64
2019-03-15T01:00:37.915Z,41.61
2019-03-15T01:01:03.901Z,41.66
2019-03-15T01:01:29.899Z,41.67
2019-03-15T01:01:55.905Z,41.69
2019-03-15T01:02:22.161Z,41.71
2019-03-15T01:02:47.910Z,41.68
2019-03-15T01:03:13.967Z,41.67
2019-03-15T01:03:39.920Z,41.71
2019-03-15T01:04:05.910Z,41.69
2019-03-15T01:04:32.515Z,41.75
2019-03-15T01:04:57.903Z,41.75
2019-03-15T01:05:23.908Z,41.74
2019-03-15T01:05:50.611Z,41.77
2019-03-15T01:06:15.924Z,41.79
2019-03-15T01:06:41.922Z,41.8
2019-03-15T01:07:07.928Z,41.84
2019-03-15T01:07:33.906Z,41.85
2019-03-15T01:07:59.909Z,41.81
2019-03-15T01:08:25.910Z,41.9
2019-03-15T01:08:51.924Z,41.86
2019-03-15T01:09:17.927Z,41.82
2019-03-15T01:09:43.908Z,39.58
2019-03-15T01:10:09.932Z,38.43
2019-03-15T01:10:35.920Z,38.68
2019-03-15T01:11:01.928Z,37.85
2019-03-15T01:11:27.915Z,37.95
2019-03-15T01:11:53.921Z,37.83
2019-03-15T01:12:19.929Z,38.32
2019-03-15T01:12:45.930Z,38.4
2019-03-15T01:13:11.997Z,38.41
2019-03-15T01:13:37.934Z,38.42
2019-03-15T01:14:03.919Z,38.61
2019-03-15T01:14:29.932Z,38.53
2019-03-15T01:14:55.928Z,38.66
2019-03-15T01:15:21.938Z,38.8
2019-03-15T01:15:47.922Z,39.06
2019-03-15T01:16:13.923Z,39.31
2019-03-15T01:16:39.938Z,39.47
2019-03-15T01:17:06.128Z,39.44
2019-03-15T01:17:31.955Z,39.61
2019-03-15T01:17:57.925Z,39.71
2019-03-15T01:18:23.926Z,39.8
2019-03-15T01:18:49.925Z,39.88
2019-03-15T01:19:15.926Z,39.97
2019-03-15T01:19:41.945Z,40.01
2019-03-15T01:20:08.017Z,40.05
2019-03-15T01:20:33.926Z,40.16
2019-03-15T01:20:59.943Z,40.26
2019-03-15T01:21:25.934Z,40
2019-03-15T01:21:51.942Z,39.96
2019-03-15T01:22:17.971Z,40.15
2019-03-15T01:22:43.957Z,40.18
2019-03-15T01:23:10.012Z,40.2
2019-03-15T01:23:36.129Z,40.61
2019-03-15T01:24:01.960Z,40.38
2019-03-15T01:24:28.054Z,40.5
2019-03-15T01:24:53.984Z,40.68
2019-03-15T01:25:20.286Z,40.58
2019-03-15T01:25:45.972Z,40.71
2019-03-15T01:26:11.949Z,40.71
2019-03-15T01:26:38.022Z,40.68
2019-03-15T01:27:04.796Z,40.58
2019-03-15T01:27:29.952Z,41
2019-03-15T01:27:55.939Z,41.21
2019-03-15T01:28:21.951Z,41.35
2019-03-15T01:28:47.936Z,41.48
2019-03-15T01:29:13.941Z,41.51
2019-03-15T01:29:39.945Z,41.69
2019-03-15T01:30:05.957Z,41.78
2019-03-15T01:30:32.018Z,41.79
2019-03-15T01:30:57.955Z,41.92
2019-03-15T01:31:23.942Z,41.83
2019-03-15T01:31:49.958Z,41.94
2019-03-15T01:32:15.942Z,41.87
2019-03-15T01:32:41.960Z,42.05
2019-03-15T01:33:07.949Z,42
2019-03-15T01:33:33.943Z,42.11
2019-03-15T01:33:59.959Z,42.27
2019-03-15T01:34:25.951Z,42.14
2019-03-15T01:34:51.962Z,42.22
2019-03-15T01:35:17.951Z,42.18
2019-03-15T01:35:43.954Z,42.29
2019-03-15T01:36:09.954Z,42.29
2019-03-15T01:36:36.027Z,42.37
2019-03-15T01:37:01.964Z,42.4
2019-03-15T01:37:27.966Z,42.52
2019-03-15T01:37:53.951Z,42.8
2019-03-15T01:38:19.964Z,42.86
2019-03-15T01:38:45.954Z,42.87
2019-03-15T01:39:11.972Z,42.85
2019-03-15T01:39:37.952Z,42.92
2019-03-15T01:40:03.957Z,42.84
2019-03-15T01:40:30.034Z,42.94
2019-03-15T01:40:55.973Z,42.99
2019-03-15T01:41:21.972Z,42.88
2019-03-15T01:41:47.985Z,42.73
2019-03-15T01:42:13.956Z,42.66
2019-03-15T01:42:39.958Z,42.5
2019-03-15T01:43:05.959Z,42.42
2019-03-15T01:43:31.970Z,42.28
2019-03-15T01:43:57.974Z,42.19
2019-03-15T01:44:24.029Z,41.99
2019-03-15T01:44:49.982Z,41.9
2019-03-15T01:45:15.979Z,41.87
2019-03-15T01:45:41.976Z,41.91
2019-03-15T01:46:07.974Z,41.82
2019-03-15T01:46:33.963Z,41.8
2019-03-15T01:46:59.962Z,41.89
2019-03-15T01:47:25.968Z,41.86
2019-03-15T01:47:51.980Z,41.82
2019-03-15T01:48:17.983Z,41.67
2019-03-15T01:48:43.968Z,41.57
2019-03-15T01:49:09.982Z,41.54
2019-03-15T01:49:35.967Z,41.48
2019-03-15T01:50:01.984Z,41.51
2019-03-15T01:50:27.967Z,41.44
2019-03-15T01:50:53.969Z,41.46
2019-03-15T01:51:19.982Z,41.39
2019-03-15T01:51:46.038Z,41.35
2019-03-15T01:52:11.983Z,41.32
2019-03-15T01:52:37.985Z,41.24
2019-03-15T01:53:03.975Z,41.25
2019-03-15T01:53:29.988Z,41.23
2019-03-15T01:53:55.971Z,41.19
2019-03-15T01:54:21.984Z,41.14
2019-03-15T01:54:48.054Z,41.13
2019-03-15T01:55:14.044Z,41.1
2019-03-15T01:55:39.988Z,41.06
2019-03-15T01:56:05.990Z,41.03
2019-03-15T01:56:31.993Z,41.03
2019-03-15T01:56:57.976Z,40.97
2019-03-15T01:57:23.978Z,40.95
2019-03-15T01:57:49.982Z,40.96
2019-03-15T01:58:15.981Z,40.95
2019-03-15T01:58:42.001Z,40.94
2019-03-15T01:59:07.998Z,40.95
2019-03-15T01:59:33.985Z,40.96
2019-03-15T01:59:59.995Z,40.93
2019-03-15T02:00:25.982Z,40.92
2019-03-15T02:00:51.996Z,40.89
2019-03-15T02:01:17.990Z,40.93
2019-03-15T02:01:44.299Z,40.9
2019-03-15T02:02:10.000Z,40.95
2019-03-15T02:02:35.987Z,40.96
2019-03-15T02:03:02.000Z,40.96
2019-03-15T02:03:27.986Z,40.92
2019-03-15T02:03:54.045Z,40.92
2019-03-15T02:04:20.324Z,40.91
2019-03-15T02:04:46.053Z,40.93
2019-03-15T02:05:12.007Z,40.9
2019-03-15T02:05:38.005Z,40.89
2019-03-15T02:06:03.992Z,40.92
2019-03-15T02:06:30.008Z,40.91
2019-03-15T02:06:55.992Z,40.91
2019-03-15T02:07:22.014Z,40.91
2019-03-15T02:07:47.991Z,40.92
2019-03-15T02:08:14.001Z,40.93
2019-03-15T02:08:40.014Z,40.95
2019-03-15T02:09:06.013Z,40.94
2019-03-15T02:09:32.011Z,40.95
2019-03-15T02:09:57.995Z,40.96
2019-03-15T02:10:23.994Z,40.97
2019-03-15T02:10:49.998Z,40.98
2019-03-15T02:11:15.998Z,41.01
2019-03-15T02:11:42.017Z,40.98
2019-03-15T02:12:08.015Z,41.01
2019-03-15T02:12:34.068Z,41.04
2019-03-15T02:13:00.014Z,41.08
2019-03-15T02:13:26.000Z,41.08
2019-03-15T02:13:52.596Z,41.1
2019-03-15T02:14:17.997Z,41.1
2019-03-15T02:14:44.002Z,41.09
2019-03-15T02:15:10.019Z,41.09
2019-03-15T02:15:36.070Z,41.08
2019-03-15T02:16:02.017Z,41.12
2019-03-15T02:16:28.022Z,41.14
2019-03-15T02:16:54.015Z,41.17
2019-03-15T02:17:20.303Z,41.2
2019-03-15T02:17:46.013Z,41.23
2019-03-15T02:18:12.022Z,41.25
2019-03-15T02:18:38.019Z,41.32
2019-03-15T02:19:04.018Z,41.31
2019-03-15T02:19:30.080Z,41.31
2019-03-15T02:19:56.029Z,41.35
2019-03-15T02:20:22.020Z,41.36
2019-03-15T02:20:48.021Z,41.38
2019-03-15T02:21:14.008Z,41.39
2019-03-15T02:21:40.012Z,41.39
2019-03-15T02:22:06.011Z,41.39
2019-03-15T02:22:32.027Z,41.4
2019-03-15T02:22:58.362Z,41.44
2019-03-15T02:23:24.020Z,41.45
2019-03-15T02:23:50.027Z,41.44
2019-03-15T02:24:16.014Z,41.47
2019-03-15T02:24:42.043Z,41.49
2019-03-15T02:25:08.017Z,41.52
2019-03-15T02:25:34.021Z,41.54
2019-03-15T02:26:00.034Z,41.56
2019-03-15T02:26:26.022Z,41.56
2019-03-15T02:26:52.034Z,41.58
2019-03-15T02:27:18.018Z,41.58
2019-03-15T02:27:44.022Z,41.59
2019-03-15T02:28:10.026Z,41.6
2019-03-15T02:28:36.025Z,41.62
2019-03-15T02:29:02.036Z,41.65
2019-03-15T02:29:28.037Z,41.64
2019-03-15T02:29:54.026Z,41.68
2019-03-15T02:30:20.038Z,41.69
2019-03-15T02:30:46.030Z,41.7
2019-03-15T02:31:12.045Z,41.73
2019-03-15T02:31:38.026Z,41.73
2019-03-15T02:32:04.045Z,41.75
2019-03-15T02:32:30.108Z,41.79
2019-03-15T02:32:56.072Z,41.83
2019-03-15T02:33:22.040Z,41.84
2019-03-15T02:33:48.027Z,41.85
2019-03-15T02:34:14.027Z,41.87
2019-03-15T02:34:40.031Z,41.87
2019-03-15T02:35:06.038Z,41.88
2019-03-15T02:35:32.112Z,41.91
2019-03-15T02:35:58.058Z,41.93
2019-03-15T02:36:24.032Z,41.94
2019-03-15T02:36:50.046Z,41.97
2019-03-15T02:37:16.034Z,41.98
2019-03-15T02:37:42.048Z,42.01
2019-03-15T02:38:08.032Z,42.02
2019-03-15T02:38:34.037Z,42.05
2019-03-15T02:39:00.052Z,42.1
2019-03-15T02:39:26.052Z,42.1
2019-03-15T02:39:52.064Z,42.14
2019-03-15T02:40:18.056Z,42.15
2019-03-15T02:40:44.041Z,42.19
2019-03-15T02:41:10.080Z,42.19
2019-03-15T02:41:36.042Z,42.22
2019-03-15T02:42:02.488Z,42.24
2019-03-15T02:42:28.057Z,42.27
2019-03-15T02:42:54.040Z,42.31
2019-03-15T02:43:20.054Z,42.3
2019-03-15T02:43:46.042Z,42.35
2019-03-15T02:44:12.058Z,42.39
2019-03-15T02:44:38.043Z,42.41
2019-03-15T02:45:04.046Z,42.42
2019-03-15T02:45:30.060Z,42.46
2019-03-15T02:45:56.155Z,42.48
2019-03-15T02:46:22.061Z,42.51
2019-03-15T02:46:48.066Z,42.54
2019-03-15T02:47:14.046Z,42.54
2019-03-15T02:47:40.063Z,42.57
2019-03-15T02:48:06.045Z,42.59
2019-03-15T02:48:32.065Z,42.62
2019-03-15T02:48:58.459Z,42.65
2019-03-15T02:49:24.055Z,42.66
2019-03-15T02:49:50.069Z,42.67
2019-03-15T02:50:16.134Z,42.68
2019-03-15T02:50:42.067Z,42.77
2019-03-15T02:51:08.071Z,42.76
2019-03-15T02:51:34.055Z,42.81
2019-03-15T02:52:00.059Z,42.81
2019-03-15T02:52:26.052Z,42.87
2019-03-15T02:52:52.071Z,42.92
2019-03-15T02:53:18.071Z,42.89
2019-03-15T02:53:44.058Z,42.91
2019-03-15T02:54:10.070Z,42.91
2019-03-15T02:54:36.058Z,42.94
2019-03-15T02:55:02.073Z,42.94
2019-03-15T02:55:28.063Z,42.94
2019-03-15T02:55:54.057Z,42.94
2019-03-15T02:56:20.101Z,43
2019-03-15T02:56:46.084Z,43
2019-03-15T02:57:12.076Z,43.02
2019-03-15T02:57:38.076Z,43.06
2019-03-15T02:58:04.403Z,43.06
2019-03-15T02:58:30.075Z,43.09
2019-03-15T02:58:56.064Z,43.12
2019-03-15T02:59:22.081Z,43.13
2019-03-15T02:59:48.065Z,43.15
2019-03-15T03:00:14.075Z,43.13
2019-03-15T03:00:40.083Z,43.14
2019-03-15T03:01:06.088Z,43.18
2019-03-15T03:01:32.083Z,43.19
2019-03-15T03:01:58.082Z,43.22
2019-03-15T03:02:24.068Z,43.24
2019-03-15T03:02:50.070Z,43.26
2019-03-15T03:03:16.070Z,43.3
2019-03-15T03:03:42.078Z,43.3
2019-03-15T03:04:08.151Z,43.32
2019-03-15T03:04:34.071Z,43.36
2019-03-15T03:05:00.096Z,43.4
2019-03-15T03:05:26.076Z,43.4
2019-03-15T03:05:52.092Z,43.42
2019-03-15T03:06:18.072Z,43.48
2019-03-15T03:06:44.068Z,43.52
2019-03-15T03:07:10.093Z,43.53
2019-03-15T03:07:36.148Z,43.52
2019-03-15T03:08:02.090Z,43.54
2019-03-15T03:08:28.092Z,43.55
2019-03-15T03:08:54.077Z,43.55
2019-03-15T03:09:20.092Z,43.54
2019-03-15T03:09:46.084Z,43.56
2019-03-15T03:10:12.100Z,43.57
2019-03-15T03:10:38.083Z,43.6
2019-03-15T03:11:04.087Z,43.6
2019-03-15T03:11:30.157Z,43.64
2019-03-15T03:11:56.097Z,43.69
2019-03-15T03:12:22.100Z,43.73
2019-03-15T03:12:48.082Z,43.73
2019-03-15T03:13:14.082Z,43.77
2019-03-15T03:13:40.082Z,43.82
2019-03-15T03:14:06.096Z,43.89
2019-03-15T03:14:32.162Z,43.93
2019-03-15T03:14:58.105Z,43.93
2019-03-15T03:15:24.091Z,43.94
2019-03-15T03:15:50.104Z,43.96
2019-03-15T03:16:16.085Z,43.98
2019-03-15T03:16:42.086Z,44
2019-03-15T03:17:08.096Z,44.01
2019-03-15T03:17:34.162Z,44.03
2019-03-15T03:18:00.104Z,44.06
2019-03-15T03:18:26.107Z,44.05
2019-03-15T03:18:52.110Z,44.07
2019-03-15T03:19:18.108Z,44.1
2019-03-15T03:19:44.091Z,44.07
2019-03-15T03:20:10.113Z,44.14
2019-03-15T03:20:36.092Z,44.18
2019-03-15T03:21:02.096Z,44.21
2019-03-15T03:21:28.119Z,44.27
2019-03-15T03:21:54.163Z,44.3
2019-03-15T03:22:20.109Z,44.32
2019-03-15T03:22:46.096Z,44.33
2019-03-15T03:23:12.116Z,44.32
2019-03-15T03:23:38.112Z,44.33
2019-03-15T03:24:04.104Z,44.39
2019-03-15T03:24:30.116Z,44.45
2019-03-15T03:24:56.117Z,44.41
2019-03-15T03:25:22.144Z,44.4
2019-03-15T03:25:48.118Z,44.38
2019-03-15T03:26:14.101Z,44.36
2019-03-15T03:26:40.103Z,44.38
2019-03-15T03:27:06.104Z,44.44
2019-03-15T03:27:32.110Z,44.5
2019-03-15T03:27:58.116Z,44.48
2019-03-15T03:28:24.109Z,44.53
2019-03-15T03:28:50.182Z,44.58
2019-03-15T03:29:16.124Z,44.59
2019-03-15T03:29:42.122Z,44.64
2019-03-15T03:30:08.123Z,44.72
2019-03-15T03:30:34.108Z,44.73
2019-03-15T03:31:00.107Z,44.74
2019-03-15T03:31:26.112Z,44.76
2019-03-15T03:31:52.118Z,44.79
2019-03-15T03:32:18.193Z,44.79
2019-03-15T03:32:44.113Z,44.83
2019-03-15T03:33:10.130Z,44.83
2019-03-15T03:33:36.111Z,44.81
2019-03-15T03:34:02.133Z,44.83
2019-03-15T03:34:28.113Z,44.87
2019-03-15T03:34:54.124Z,44.87
2019-03-15T03:35:20.193Z,44.88
2019-03-15T03:35:46.129Z,44.84
2019-03-15T03:36:12.130Z,44.82
2019-03-15T03:36:38.114Z,44.81
2019-03-15T03:37:04.117Z,44.79
2019-03-15T03:37:30.121Z,44.85
2019-03-15T03:37:56.123Z,44.88
2019-03-15T03:38:22.132Z,44.85
2019-03-15T03:38:48.137Z,44.84
2019-03-15T03:39:14.131Z,44.89
2019-03-15T03:39:40.137Z,44.96
2019-03-15T03:40:06.121Z,44.98
2019-03-15T03:40:32.148Z,45.03
2019-03-15T03:40:58.132Z,45
2019-03-15T03:41:24.130Z,44.99
2019-03-15T03:41:50.138Z,45
2019-03-15T03:42:16.212Z,44.97
2019-03-15T03:42:42.165Z,45.03
2019-03-15T03:43:08.140Z,45.03
2019-03-15T03:43:34.130Z,45.02
2019-03-15T03:44:00.127Z,45.01
2019-03-15T03:44:26.126Z,45.03
2019-03-15T03:44:52.149Z,45.06
2019-03-15T03:45:18.145Z,45.03
2019-03-15T03:45:44.127Z,45
2019-03-15T03:46:10.142Z,44.99
2019-03-15T03:46:36.131Z,44.98
2019-03-15T03:47:02.390Z,44.98
2019-03-15T03:47:28.132Z,45.01
2019-03-15T03:47:54.144Z,45.03
2019-03-15T03:48:20.148Z,45.03
2019-03-15T03:48:46.148Z,45.04
2019-03-15T03:49:12.152Z,45.03
2019-03-15T03:49:38.152Z,45.02
2019-03-15T03:50:04.135Z,44.99
2019-03-15T03:50:30.135Z,45.02
2019-03-15T03:50:56.136Z,45.02
2019-03-15T03:51:22.152Z,45.02
2019-03-15T03:51:48.159Z,45.08
2019-03-15T03:52:14.205Z,45.1
2019-03-15T03:52:40.165Z,45.09
2019-03-15T03:53:06.160Z,45.04
2019-03-15T03:53:32.154Z,45.1
2019-03-15T03:53:58.144Z,45.1
2019-03-15T03:54:24.140Z,45.08
2019-03-15T03:54:50.149Z,45.08
2019-03-15T03:55:16.223Z,45.11
2019-03-15T03:55:42.153Z,45.14
2019-03-15T03:56:08.159Z,45.13
2019-03-15T03:56:34.146Z,45.1
2019-03-15T03:57:00.154Z,45.13
2019-03-15T03:57:26.148Z,45.16
2019-03-15T03:57:52.166Z,45.14
2019-03-15T03:58:18.164Z,45.13
2019-03-15T03:58:44.149Z,45.12
2019-03-15T03:59:10.159Z,45.14
2019-03-15T03:59:36.147Z,45.15
2019-03-15T04:00:02.166Z,45.15
2019-03-15T04:00:28.148Z,45.17
2019-03-15T04:00:54.145Z,45.16
2019-03-15T04:01:20.442Z,45.14
2019-03-15T04:01:46.167Z,45.16
2019-03-15T04:02:12.170Z,45.18
2019-03-15T04:02:38.172Z,45.21
2019-03-15T04:03:04.183Z,45.2
2019-03-15T04:03:30.151Z,45.22
2019-03-15T04:03:56.151Z,45.25
2019-03-15T04:04:22.162Z,45.25
2019-03-15T04:04:48.237Z,45.25
2019-03-15T04:05:14.155Z,45.26
2019-03-15T04:05:40.171Z,45.26
2019-03-15T04:06:06.160Z,45.29
2019-03-15T04:06:32.172Z,45.29
2019-03-15T04:06:58.157Z,45.28
2019-03-15T04:07:24.163Z,45.28
2019-03-15T04:07:50.164Z,45.3
2019-03-15T04:08:16.168Z,45.29
2019-03-15T04:08:42.239Z,45.28
2019-03-15T04:09:08.242Z,45.3
2019-03-15T04:09:34.161Z,45.29
2019-03-15T04:10:00.177Z,45.32
2019-03-15T04:10:26.163Z,45.31
2019-03-15T04:10:52.187Z,45.31
2019-03-15T04:11:18.164Z,45.31
2019-03-15T04:11:44.173Z,45.34
2019-03-15T04:12:10.184Z,45.34
2019-03-15T04:12:36.185Z,45.33
2019-03-15T04:13:02.183Z,45.36
2019-03-15T04:13:28.168Z,45.35
2019-03-15T04:13:54.168Z,45.35
2019-03-15T04:14:20.169Z,45.37
2019-03-15T04:14:46.185Z,45.4
2019-03-15T04:15:12.184Z,45.51
2019-03-15T04:15:38.191Z,45.52
2019-03-15T04:16:04.171Z,45.52
2019-03-15T04:16:30.189Z,45.5
2019-03-15T04:16:56.176Z,45.5
2019-03-15T04:17:22.193Z,45.46
2019-03-15T04:17:48.175Z,45.52
2019-03-15T04:18:14.182Z,45.5
2019-03-15T04:18:40.275Z,45.52
2019-03-15T04:19:06.190Z,45.53
2019-03-15T04:19:32.190Z,45.51
2019-03-15T04:19:58.179Z,45.53
2019-03-15T04:20:24.179Z,45.52
2019-03-15T04:20:50.178Z,45.53
2019-03-15T04:21:16.186Z,45.54
2019-03-15T04:21:42.199Z,45.57
2019-03-15T04:22:08.198Z,45.54
2019-03-15T04:22:34.182Z,45.58
2019-03-15T04:23:00.195Z,45.59
2019-03-15T04:23:26.183Z,45.57
2019-03-15T04:23:52.197Z,45.58
2019-03-15T04:24:18.181Z,45.6
2019-03-15T04:24:44.182Z,45.61
2019-03-15T04:25:10.202Z,45.57
2019-03-15T04:25:36.200Z,45.59
2019-03-15T04:26:02.200Z,45.57
2019-03-15T04:26:28.206Z,45.6
2019-03-15T04:26:54.192Z,45.6
2019-03-15T04:27:20.205Z,45.59
2019-03-15T04:27:46.185Z,45.6
2019-03-15T04:28:12.203Z,45.59
2019-03-15T04:28:38.195Z,45.61
2019-03-15T04:29:04.188Z,45.6
2019-03-15T04:29:30.204Z,45.6
2019-03-15T04:29:56.207Z,45.6
2019-03-15T04:30:22.206Z,45.62
2019-03-15T04:30:48.230Z,45.61
2019-03-15T04:31:14.197Z,45.61
2019-03-15T04:31:40.197Z,45.65
2019-03-15T04:32:06.190Z,45.65
2019-03-15T04:32:32.201Z,45.63
2019-03-15T04:32:58.214Z,45.61
2019-03-15T04:33:24.269Z,45.65
2019-03-15T04:33:50.212Z,45.65
2019-03-15T04:34:16.196Z,45.69
2019-03-15T04:34:42.213Z,45.68
2019-03-15T04:35:08.212Z,45.7
2019-03-15T04:35:34.206Z,45.69
2019-03-15T04:36:00.218Z,45.7
2019-03-15T04:36:26.213Z,45.72
2019-03-15T04:36:52.215Z,45.74
2019-03-15T04:37:18.214Z,45.72
2019-03-15T04:37:44.204Z,45.73
2019-03-15T04:38:10.217Z,45.75
2019-03-15T04:38:36.236Z,45.75
2019-03-15T04:39:02.203Z,45.75
2019-03-15T04:39:28.217Z,45.75
2019-03-15T04:39:54.274Z,45.72
2019-03-15T04:40:20.217Z,45.74
2019-03-15T04:40:46.207Z,45.72
2019-03-15T04:41:12.235Z,45.75
2019-03-15T04:41:38.205Z,45.77
2019-03-15T04:42:04.220Z,45.79
2019-03-15T04:42:30.219Z,45.78
2019-03-15T04:42:56.287Z,45.81
2019-03-15T04:43:22.224Z,45.83
2019-03-15T04:43:48.225Z,45.81
2019-03-15T04:44:14.228Z,45.85
2019-03-15T04:44:40.235Z,45.84
2019-03-15T04:45:06.211Z,45.85
2019-03-15T04:45:32.227Z,45.83
2019-03-15T04:45:58.293Z,45.89
2019-03-15T04:46:24.213Z,45.9
2019-03-15T04:46:50.239Z,45.87
2019-03-15T04:47:16.216Z,45.88
2019-03-15T04:47:42.232Z,45.9
2019-03-15T04:48:08.214Z,45.93
2019-03-15T04:48:34.227Z,45.93
2019-03-15T04:49:00.306Z,45.91
2019-03-15T04:49:26.231Z,45.88
2019-03-15T04:49:52.233Z,45.86
2019-03-15T04:50:18.240Z,45.86
2019-03-15T04:50:44.225Z,45.89
2019-03-15T04:51:10.235Z,45.9
2019-03-15T04:51:36.220Z,45.86
2019-03-15T04:52:02.221Z,45.88
2019-03-15T04:52:28.233Z,45.88
2019-03-15T04:52:54.292Z,45.88
2019-03-15T04:53:20.238Z,45.92
2019-03-15T04:53:46.229Z,45.92
2019-03-15T04:54:12.240Z,45.9
2019-03-15T04:54:38.226Z,45.92
2019-03-15T04:55:04.228Z,45.94
2019-03-15T04:55:30.227Z,45.96
2019-03-15T04:55:56.245Z,45.95
2019-03-15T04:56:22.307Z,45.93
2019-03-15T04:56:48.245Z,45.92
2019-03-15T04:57:14.230Z,45.93
2019-03-15T04:57:40.246Z,45.93
2019-03-15T04:58:06.722Z,45.94
2019-03-15T04:58:32.246Z,45.94
2019-03-15T04:58:58.230Z,45.94
2019-03-15T04:59:24.234Z,45.96
2019-03-15T04:59:50.230Z,45.94
2019-03-15T05:00:16.239Z,45.96
2019-03-15T05:00:42.250Z,45.95
2019-03-15T05:01:08.314Z,45.98
2019-03-15T05:01:34.956Z,46.02
2019-03-15T05:02:00.251Z,46.03
2019-03-15T05:02:26.233Z,46.04
2019-03-15T05:02:52.906Z,46.09
2019-03-15T05:03:18.239Z,46.11
2019-03-15T05:03:44.238Z,46.08
2019-03-15T05:04:10.245Z,46.07
2019-03-15T05:04:36.261Z,46.1
2019-03-15T05:05:02.256Z,46.11
2019-03-15T05:05:28.255Z,46.08
2019-03-15T05:05:54.240Z,46.11
2019-03-15T05:06:20.256Z,46.09
2019-03-15T05:06:46.242Z,46.11
2019-03-15T05:07:12.265Z,46.14
2019-03-15T05:07:38.241Z,46.16
2019-03-15T05:08:04.257Z,46.13
2019-03-15T05:08:30.260Z,46.13
2019-03-15T05:08:56.284Z,46.17
2019-03-15T05:09:22.264Z,46.14
2019-03-15T05:09:48.245Z,46.17
2019-03-15T05:10:14.247Z,46.17
2019-03-15T05:10:40.246Z,46.19
2019-03-15T05:11:06.262Z,46.19
2019-03-15T05:11:32.328Z,46.2
2019-03-15T05:11:58.318Z,46.22
2019-03-15T05:12:24.250Z,46.22
2019-03-15T05:12:50.266Z,46.24
2019-03-15T05:13:16.258Z,46.27
2019-03-15T05:13:42.268Z,46.25
2019-03-15T05:14:08.255Z,46.25
2019-03-15T05:14:34.252Z,46.26
2019-03-15T05:15:00.334Z,46.25
2019-03-15T05:15:26.272Z,46.25
2019-03-15T05:15:52.277Z,46.27
2019-03-15T05:16:18.269Z,46.28
2019-03-15T05:16:44.257Z,46.24
2019-03-15T05:17:10.275Z,46.25
2019-03-15T05:17:36.258Z,46.3
2019-03-15T05:18:02.261Z,46.28
2019-03-15T05:18:28.267Z,46.31
2019-03-15T05:18:54.324Z,46.3
2019-03-15T05:19:20.287Z,46.29
2019-03-15T05:19:46.257Z,46.33
2019-03-15T05:20:12.276Z,46.32
2019-03-15T05:20:38.262Z,46.33
2019-03-15T05:21:04.265Z,46.32
2019-03-15T05:21:30.270Z,46.31
2019-03-15T05:21:56.342Z,46.33
2019-03-15T05:22:22.278Z,46.32
2019-03-15T05:22:48.279Z,46.34
2019-03-15T05:23:14.290Z,46.33
2019-03-15T05:23:40.281Z,46.33
2019-03-15T05:24:06.264Z,46.31
2019-03-15T05:24:32.849Z,46.31
2019-03-15T05:24:58.273Z,46.4
2019-03-15T05:25:24.277Z,46.37
2019-03-15T05:25:50.348Z,46.44
2019-03-15T05:26:16.348Z,46.41
2019-03-15T05:26:42.288Z,46.42
2019-03-15T05:27:08.284Z,46.42
2019-03-15T05:27:34.272Z,46.48
2019-03-15T05:28:00.285Z,46.45
2019-03-15T05:28:26.277Z,46.45
2019-03-15T05:28:52.281Z,46.45
2019-03-15T05:29:18.292Z,46.46
2019-03-15T05:29:44.279Z,46.47
2019-03-15T05:30:10.291Z,46.5
2019-03-15T05:30:36.278Z,46.53
2019-03-15T05:31:02.290Z,46.55
2019-03-15T05:31:28.275Z,46.52
2019-03-15T05:31:54.281Z,46.52
2019-03-15T05:32:20.296Z,46.54
2019-03-15T05:32:46.355Z,46.53
2019-03-15T05:33:12.296Z,46.52
2019-03-15T05:33:38.299Z,46.53
2019-03-15T05:34:04.279Z,46.57
2019-03-15T05:34:30.296Z,46.57
2019-03-15T05:34:56.285Z,46.58
2019-03-15T05:35:22.297Z,46.55
2019-03-15T05:35:48.288Z,46.55
2019-03-15T05:36:14.291Z,46.55
2019-03-15T05:36:40.300Z,46.55